createdAt,value
2018-07-07T00:00:39.847Z,101821.77
2018-07-07T00:03:09.118Z,101823.92
2018-07-07T00:05:38.876Z,101821.98
2018-07-07T00:08:08.459Z,101826.02
2018-07-07T00:10:38.346Z,101824.04
2018-07-07T00:13:08.230Z,101820.84
2018-07-07T00:15:37.890Z,101825.27
2018-07-07T00:18:07.827Z,101823.07
2018-07-07T00:20:37.468Z,101819.14
2018-07-07T00:23:07.954Z,101823.53
2018-07-07T00:25:38.148Z,101823.25
2018-07-07T00:28:07.665Z,101829.02
2018-07-07T00:30:37.882Z,101825.47
2018-07-07T00:33:08.154Z,101826.31
2018-07-07T00:35:38.059Z,101830.39
2018-07-07T00:38:08.234Z,101821.13
2018-07-07T00:40:38.610Z,101821.05
2018-07-07T00:43:08.434Z,101824.92
2018-07-07T00:45:38.698Z,101825.70
2018-07-07T00:48:08.606Z,101823.71
2018-07-07T00:50:38.760Z,101820.72
2018-07-07T00:53:08.538Z,101827.55
2018-07-07T00:55:38.450Z,101833.09
2018-07-07T00:58:09.291Z,101830.89
2018-07-07T01:00:52.614Z,101832.53
2018-07-07T01:03:23.278Z,101835.47
2018-07-07T01:05:52.905Z,101833.81
2018-07-07T01:08:22.694Z,101832.20
2018-07-07T01:10:53.214Z,101833.28
2018-07-07T01:13:23.240Z,101832.47
2018-07-07T01:15:52.536Z,101836.84
2018-07-07T01:18:22.858Z,101834.13
2018-07-07T01:20:52.171Z,101833.02
2018-07-07T01:23:22.386Z,101831.41
2018-07-07T01:25:52.283Z,101837.15
2018-07-07T01:28:21.791Z,101843.47
2018-07-07T01:30:51.707Z,101836.08
2018-07-07T01:33:21.565Z,101835.27
2018-07-07T01:35:52.547Z,101836.59
2018-07-07T01:38:21.918Z,101839.33
2018-07-07T01:40:51.813Z,101828.95
2018-07-07T01:43:21.984Z,101832.20
2018-07-07T01:45:51.753Z,101833.02
2018-07-07T01:48:21.645Z,101831.84
2018-07-07T01:50:51.410Z,101831.37
2018-07-07T01:53:21.265Z,101824.27
2018-07-07T01:55:51.118Z,101830.84
2018-07-07T01:58:21.010Z,101822.90
2018-07-07T02:00:51.390Z,101823.69
2018-07-07T02:03:21.296Z,101820.13
2018-07-07T02:05:51.619Z,101819.29
2018-07-07T02:08:21.661Z,101823.95
2018-07-07T02:10:51.357Z,101827.53
2018-07-07T02:13:21.398Z,101826.98
2018-07-07T02:15:51.191Z,101821.73
2018-07-07T02:18:20.624Z,101820.33
2018-07-07T02:20:50.600Z,101822.26
2018-07-07T02:23:20.217Z,101823.63
2018-07-07T02:25:49.797Z,101825.77
2018-07-07T02:28:19.674Z,101826.14
2018-07-07T02:30:49.248Z,101831.03
2018-07-07T02:33:19.402Z,101831.03
2018-07-07T02:35:49.708Z,101829.38
2018-07-07T02:38:19.934Z,101829.69
2018-07-07T02:40:49.506Z,101824.22
2018-07-07T02:43:18.759Z,101828.52
2018-07-07T02:45:48.803Z,101823.08
2018-07-07T02:48:18.850Z,101825.26
2018-07-07T02:50:48.615Z,101824.91
2018-07-07T02:53:18.174Z,101824.86
2018-07-07T02:55:48.644Z,101823.28
2018-07-07T02:58:18.544Z,101818.00
2018-07-07T03:00:48.660Z,101818.29
2018-07-07T03:03:18.602Z,101821.00
2018-07-07T03:05:49.189Z,101819.92
2018-07-07T03:08:18.656Z,101821.86
2018-07-07T03:10:48.694Z,101819.39
2018-07-07T03:13:18.103Z,101827.25
2018-07-07T03:15:48.333Z,101836.22
2018-07-07T03:18:17.748Z,101834.03
2018-07-07T03:20:47.602Z,101841.69
2018-07-07T03:23:17.752Z,101837.25
2018-07-07T03:25:47.419Z,101840.53
2018-07-07T03:28:17.346Z,101842.77
2018-07-07T03:30:46.902Z,101842.34
2018-07-07T03:33:16.835Z,101845.86
2018-07-07T03:35:46.571Z,101852.08
2018-07-07T03:38:16.302Z,101852.61
2018-07-07T03:40:45.591Z,101855.30
2018-07-07T03:43:14.910Z,101851.29
2018-07-07T03:45:44.976Z,101853.50
2018-07-07T03:48:15.602Z,101852.45
2018-07-07T03:50:46.371Z,101855.41
2018-07-07T03:53:16.330Z,101854.92
2018-07-07T03:55:46.031Z,101858.73
2018-07-07T03:58:15.957Z,101860.87
2018-07-07T04:00:45.933Z,101862.25
2018-07-07T04:03:15.647Z,101861.89
2018-07-07T04:05:45.519Z,101865.34
2018-07-07T04:08:15.628Z,101871.06
2018-07-07T04:10:45.316Z,101868.69
2018-07-07T04:13:14.852Z,101868.98
2018-07-07T04:15:44.727Z,101874.64
2018-07-07T04:18:17.353Z,101882.53
2018-07-07T04:20:46.973Z,101887.80
2018-07-07T04:23:16.573Z,101891.99
2018-07-07T04:25:46.146Z,101898.40
2018-07-07T04:28:16.068Z,101889.66
2018-07-07T04:30:46.190Z,101896.88
2018-07-07T04:33:16.084Z,101897.78
2018-07-07T04:35:45.604Z,101895.22
2018-07-07T04:38:15.147Z,101898.53
2018-07-07T04:40:44.971Z,101896.55
2018-07-07T04:43:14.787Z,101896.32
2018-07-07T04:45:44.550Z,101896.38
2018-07-07T04:48:14.678Z,101902.43
2018-07-07T04:50:44.526Z,101900.31
2018-07-07T04:53:14.690Z,101905.16
2018-07-07T04:55:44.345Z,101900.83
2018-07-07T04:58:14.738Z,101902.59
2018-07-07T05:00:44.982Z,101901.83
2018-07-07T05:03:14.560Z,101908.41
2018-07-07T05:05:44.400Z,101913.84
2018-07-07T05:08:13.604Z,101911.74
2018-07-07T05:10:42.912Z,101913.92
2018-07-07T05:13:12.996Z,101914.97
2018-07-07T05:15:42.411Z,101911.42
2018-07-07T05:18:12.044Z,101911.95
2018-07-07T05:20:42.035Z,101914.41
2018-07-07T05:23:12.080Z,101920.44
2018-07-07T05:25:42.081Z,101923.88
2018-07-07T05:28:11.677Z,101922.56
2018-07-07T05:30:41.491Z,101932.16
2018-07-07T05:33:11.135Z,101926.92
2018-07-07T05:35:40.818Z,101925.17
2018-07-07T05:38:11.264Z,101928.14
2018-07-07T05:40:45.316Z,101934.27
2018-07-07T05:43:14.885Z,101932.23
2018-07-07T05:45:44.747Z,101930.98
2018-07-07T05:48:14.574Z,101934.36
2018-07-07T05:50:44.571Z,101934.89
2018-07-07T05:53:14.010Z,101942.63
2018-07-07T05:55:43.451Z,101937.23
2018-07-07T05:58:13.044Z,101937.00
2018-07-07T06:00:43.180Z,101930.91
2018-07-07T06:03:12.889Z,101938.81
2018-07-07T06:05:42.502Z,101939.66
2018-07-07T06:08:12.651Z,101946.34
2018-07-07T06:10:41.968Z,101939.55
2018-07-07T06:13:11.624Z,101939.61
2018-07-07T06:15:41.895Z,101943.08
2018-07-07T06:18:11.406Z,101944.18
2018-07-07T06:20:41.002Z,101945.23
2018-07-07T06:23:10.927Z,101950.02
2018-07-07T06:25:40.638Z,101948.13
2018-07-07T06:28:10.377Z,101954.38
2018-07-07T06:30:39.795Z,101954.38
2018-07-07T06:33:09.877Z,101956.70
2018-07-07T06:35:40.513Z,101959.25
2018-07-07T06:38:10.557Z,101955.91
2018-07-07T06:40:40.265Z,101961.33
2018-07-07T06:43:09.602Z,101961.48
2018-07-07T06:45:40.156Z,101957.30
2018-07-07T06:48:10.635Z,101964.31
2018-07-07T06:50:40.457Z,101960.61
2018-07-07T06:53:09.857Z,101959.56
2018-07-07T06:55:39.561Z,101959.95
2018-07-07T06:58:12.816Z,101948.66
2018-07-07T07:00:42.986Z,101947.28
2018-07-07T07:03:12.253Z,101949.51
2018-07-07T07:05:41.559Z,101954.12
2018-07-07T07:08:11.256Z,101965.44
2018-07-07T07:10:41.009Z,101964.50
2018-07-07T07:13:11.064Z,101955.00
2018-07-07T07:15:40.770Z,101960.23
2018-07-07T07:18:10.737Z,101957.82
2018-07-07T07:20:40.436Z,101962.88
2018-07-07T07:23:10.118Z,101965.31
2018-07-07T07:25:39.718Z,101964.00
2018-07-07T07:28:09.628Z,101960.02
2018-07-07T07:30:39.359Z,101962.81
2018-07-07T07:33:09.596Z,101971.75
2018-07-07T07:35:39.062Z,101966.61
2018-07-07T07:38:09.080Z,101959.48
2018-07-07T07:40:38.698Z,101959.89
2018-07-07T07:43:08.166Z,101964.11
2018-07-07T07:45:37.866Z,101964.67
2018-07-07T07:48:07.406Z,101959.43
2018-07-07T07:50:37.303Z,101956.31
2018-07-07T07:53:07.576Z,101963.28
2018-07-07T07:55:38.631Z,101961.69
2018-07-07T07:58:08.132Z,101961.47
2018-07-07T08:00:37.696Z,101951.06
2018-07-07T08:03:07.701Z,101955.64
2018-07-07T08:05:37.243Z,101962.52
2018-07-07T08:08:07.146Z,101961.44
2018-07-07T08:10:36.772Z,101959.31
2018-07-07T08:13:06.502Z,101966.99
2018-07-07T08:15:40.521Z,101964.05
2018-07-07T08:18:10.189Z,101967.61
2018-07-07T08:20:40.127Z,101966.84
2018-07-07T08:23:09.682Z,101968.45
2018-07-07T08:25:39.645Z,101967.91
2018-07-07T08:28:09.047Z,101963.28
2018-07-07T08:30:39.183Z,101960.00
2018-07-07T08:33:08.947Z,101961.35
2018-07-07T08:35:38.743Z,101956.66
2018-07-07T08:38:13.392Z,101954.24
2018-07-07T08:40:43.125Z,101953.73
2018-07-07T08:43:15.595Z,101952.62
2018-07-07T08:45:46.025Z,101965.25
2018-07-07T08:48:16.679Z,101969.98
2018-07-07T08:50:47.171Z,101961.97
2018-07-07T08:53:17.151Z,101967.45
2018-07-07T08:55:46.879Z,101965.77
2018-07-07T08:58:16.911Z,101963.56
2018-07-07T09:00:46.646Z,101969.06
2018-07-07T09:03:17.694Z,101966.09
2018-07-07T09:05:47.587Z,101971.31
2018-07-07T09:08:17.721Z,101961.48
2018-07-07T09:10:47.942Z,101961.80
2018-07-07T09:13:18.380Z,101957.14
2018-07-07T09:15:48.594Z,101959.36
2018-07-07T09:18:22.805Z,101960.17
2018-07-07T09:20:52.569Z,101959.66
2018-07-07T09:23:23.082Z,101956.09
2018-07-07T09:25:53.685Z,101952.26
2018-07-07T09:28:23.136Z,101954.71
2018-07-07T09:30:53.943Z,101952.82
2018-07-07T09:33:24.503Z,101953.08
2018-07-07T09:35:54.258Z,101955.30
2018-07-07T09:38:23.681Z,101951.70
2018-07-07T09:40:53.942Z,101948.14
2018-07-07T09:43:24.800Z,101946.78
2018-07-07T09:45:54.413Z,101952.00
2018-07-07T09:48:24.419Z,101943.23
2018-07-07T09:50:54.838Z,101950.36
2018-07-07T09:53:24.592Z,101944.34
2018-07-07T09:55:54.687Z,101943.28
2018-07-07T09:58:24.483Z,101939.95
2018-07-07T10:00:54.927Z,101944.34
2018-07-07T10:03:26.001Z,101932.80
2018-07-07T10:05:55.491Z,101944.63
2018-07-07T10:08:25.363Z,101938.02
2018-07-07T10:10:57.178Z,101934.20
2018-07-07T10:13:30.723Z,101938.60
2018-07-07T10:16:01.045Z,101940.25
2018-07-07T10:18:31.115Z,101931.45
2018-07-07T10:21:01.561Z,101930.38
2018-07-07T10:23:31.142Z,101940.25
2018-07-07T10:26:00.985Z,101939.42
2018-07-07T10:28:30.916Z,101943.77
2018-07-07T10:31:00.676Z,101934.70
2018-07-07T10:33:30.051Z,101938.00
2018-07-07T10:36:00.392Z,101937.44
2018-07-07T10:38:30.933Z,101935.23
2018-07-07T10:41:01.759Z,101943.20
2018-07-07T10:43:31.300Z,101945.95
2018-07-07T10:46:01.737Z,101934.98
2018-07-07T10:48:32.161Z,101931.95
2018-07-07T10:51:02.533Z,101926.72
2018-07-07T10:53:32.533Z,101933.01
2018-07-07T10:56:02.661Z,101937.38
2018-07-07T10:58:32.422Z,101931.12
2018-07-07T11:01:02.530Z,101931.92
2018-07-07T11:03:32.569Z,101932.98
2018-07-07T11:06:03.150Z,101933.80
2018-07-07T11:08:32.695Z,101925.84
2018-07-07T11:11:02.260Z,101926.59
2018-07-07T11:13:31.501Z,101923.23
2018-07-07T11:16:00.780Z,101919.92
2018-07-07T11:18:30.387Z,101919.03
2018-07-07T11:21:04.911Z,101915.75
2018-07-07T11:23:34.824Z,101920.15
2018-07-07T11:26:04.929Z,101916.84
2018-07-07T11:28:35.645Z,101923.97
2018-07-07T11:31:05.882Z,101919.51
2018-07-07T11:33:36.442Z,101918.63
2018-07-07T11:36:06.970Z,101923.83
2018-07-07T11:38:37.480Z,101919.02
2018-07-07T11:41:07.950Z,101917.67
2018-07-07T11:43:38.745Z,101921.53
2018-07-07T11:46:08.868Z,101910.27
2018-07-07T11:48:39.314Z,101920.67
2018-07-07T11:51:10.779Z,101928.27
2018-07-07T11:53:40.740Z,101923.88
2018-07-07T11:56:10.197Z,101923.53
2018-07-07T11:58:39.571Z,101923.84
2018-07-07T12:01:09.563Z,101924.72
2018-07-07T12:03:39.307Z,101926.03
2018-07-07T12:06:09.103Z,101914.35
2018-07-07T12:08:38.712Z,101913.09
2018-07-07T12:11:08.263Z,101915.02
2018-07-07T12:13:37.743Z,101913.20
2018-07-07T12:16:07.649Z,101916.02
2018-07-07T12:18:36.887Z,101907.03
2018-07-07T12:21:06.352Z,101908.58
2018-07-07T12:23:36.240Z,101897.87
2018-07-07T12:26:08.701Z,101903.06
2018-07-07T12:28:38.406Z,101908.68
2018-07-07T12:31:08.017Z,101907.06
2018-07-07T12:33:38.071Z,101897.80
2018-07-07T12:36:07.870Z,101896.98
2018-07-07T12:38:37.455Z,101899.17
2018-07-07T12:41:07.097Z,101906.97
2018-07-07T12:43:36.602Z,101902.27
2018-07-07T12:46:06.320Z,101897.17
2018-07-07T12:48:36.385Z,101902.00
2018-07-07T12:51:06.165Z,101885.73
2018-07-07T12:53:36.089Z,101894.30
2018-07-07T12:56:06.929Z,101875.84
2018-07-07T12:58:36.263Z,101887.78
2018-07-07T13:01:06.118Z,101884.67
2018-07-07T13:03:35.618Z,101883.23
2018-07-07T13:06:05.868Z,101882.13
2018-07-07T13:08:35.944Z,101885.69
2018-07-07T13:11:05.519Z,101879.80
2018-07-07T13:13:35.057Z,101876.75
2018-07-07T13:16:04.548Z,101876.66
2018-07-07T13:18:34.565Z,101874.94
2018-07-07T13:21:04.536Z,101885.02
2018-07-07T13:23:33.816Z,101882.72
2018-07-07T13:26:03.587Z,101891.67
2018-07-07T13:28:33.414Z,101883.64
2018-07-07T13:31:03.353Z,101884.25
2018-07-07T13:33:32.933Z,101886.09
2018-07-07T13:36:02.717Z,101876.58
2018-07-07T13:38:36.855Z,101884.33
2018-07-07T13:41:09.374Z,101886.25
2018-07-07T13:43:40.172Z,101875.70
2018-07-07T13:46:10.520Z,101883.67
2018-07-07T13:48:39.899Z,101872.90
2018-07-07T13:51:09.885Z,101878.61
2018-07-07T13:53:39.262Z,101891.38
2018-07-07T13:56:09.461Z,101883.91
2018-07-07T13:58:39.406Z,101888.89
2018-07-07T14:01:08.978Z,101872.29
2018-07-07T14:03:41.220Z,101869.27
2018-07-07T14:06:11.399Z,101885.41
2018-07-07T14:08:41.523Z,101874.70
2018-07-07T14:11:11.405Z,101875.47
2018-07-07T14:13:40.903Z,101883.21
2018-07-07T14:16:10.622Z,101872.02
2018-07-07T14:18:40.040Z,101871.14
2018-07-07T14:21:13.504Z,101873.52
2018-07-07T14:23:43.318Z,101877.55
2018-07-07T14:26:13.149Z,101883.75
2018-07-07T14:28:43.078Z,101865.27
2018-07-07T14:31:12.537Z,101869.11
2018-07-07T14:33:42.567Z,101870.61
2018-07-07T14:36:11.973Z,101869.84
2018-07-07T14:38:43.149Z,101871.34
2018-07-07T14:41:14.976Z,101867.50
2018-07-07T14:43:52.781Z,101860.41
2018-07-07T14:46:22.853Z,101869.42
2018-07-07T14:48:52.536Z,101866.22
2018-07-07T14:51:22.792Z,101869.28
2018-07-07T14:53:52.472Z,101861.69
2018-07-07T14:56:23.120Z,101863.34
2018-07-07T14:58:53.996Z,101860.17
2018-07-07T15:01:24.715Z,101863.55
2018-07-07T15:03:54.217Z,101853.23
2018-07-07T15:06:23.513Z,101850.89
2018-07-07T15:08:53.101Z,101852.11
2018-07-07T15:11:26.061Z,101851.23
2018-07-07T15:13:55.910Z,101850.83
2018-07-07T15:16:25.688Z,101848.65
2018-07-07T15:18:55.170Z,101861.39
2018-07-07T15:21:24.991Z,101846.81
2018-07-07T15:23:54.577Z,101852.62
2018-07-07T15:26:24.419Z,101853.59
2018-07-07T15:28:54.229Z,101847.19
2018-07-07T15:31:23.831Z,101861.69
2018-07-07T15:33:56.732Z,101852.81
2018-07-07T15:36:26.711Z,101849.97
2018-07-07T15:38:56.016Z,101844.80
2018-07-07T15:41:28.879Z,101841.23
2018-07-07T15:43:59.033Z,101838.97
2018-07-07T15:46:28.778Z,101838.43
2018-07-07T15:48:58.754Z,101844.51
2018-07-07T15:51:28.328Z,101837.02
2018-07-07T15:53:57.988Z,101846.46
2018-07-07T15:56:27.409Z,101845.70
2018-07-07T15:58:56.911Z,101846.94
2018-07-07T16:01:27.467Z,101841.73
2018-07-07T16:03:57.994Z,101833.76
2018-07-07T16:06:27.606Z,101834.19
2018-07-07T16:08:57.113Z,101830.13
2018-07-07T16:11:27.223Z,101838.67
2018-07-07T16:13:56.790Z,101833.31
2018-07-07T16:16:26.303Z,101831.44
2018-07-07T16:18:59.787Z,101831.55
2018-07-07T16:21:29.836Z,101829.83
2018-07-07T16:24:00.012Z,101822.73
2018-07-07T16:26:30.621Z,101828.64
2018-07-07T16:29:00.403Z,101833.39
2018-07-07T16:31:30.068Z,101842.86
2018-07-07T16:34:00.104Z,101843.58
2018-07-07T16:36:30.013Z,101835.38
2018-07-07T16:38:59.615Z,101826.59
2018-07-07T16:41:29.274Z,101826.52
2018-07-07T16:44:01.648Z,101822.31
2018-07-07T16:46:32.010Z,101825.30
2018-07-07T16:49:05.682Z,101820.97
2018-07-07T16:51:35.300Z,101823.73
2018-07-07T16:54:05.150Z,101822.69
2018-07-07T16:56:35.326Z,101823.37
2018-07-07T16:59:04.702Z,101817.20
2018-07-07T17:01:34.498Z,101822.19
2018-07-07T17:04:03.945Z,101823.91
2018-07-07T17:06:33.538Z,101825.28
2018-07-07T17:09:03.266Z,101822.20
2018-07-07T17:11:32.979Z,101824.00
2018-07-07T17:14:02.977Z,101814.92
2018-07-07T17:16:32.470Z,101817.38
2018-07-07T17:19:02.263Z,101821.42
2018-07-07T17:21:32.328Z,101821.48
2018-07-07T17:24:02.046Z,101822.48
2018-07-07T17:26:31.847Z,101823.35
2018-07-07T17:29:01.506Z,101823.66
2018-07-07T17:31:31.090Z,101816.58
2018-07-07T17:34:00.845Z,101822.96
2018-07-07T17:36:30.276Z,101824.70
2018-07-07T17:39:01.130Z,101823.88
2018-07-07T17:41:31.096Z,101825.45
2018-07-07T17:44:00.605Z,101827.42
2018-07-07T17:46:30.510Z,101827.16
2018-07-07T17:49:00.648Z,101826.70
2018-07-07T17:51:30.994Z,101830.85
2018-07-07T17:54:01.678Z,101837.88
2018-07-07T17:56:31.685Z,101834.33
2018-07-07T17:59:02.691Z,101832.11
2018-07-07T18:01:34.680Z,101838.70
2018-07-07T18:04:04.541Z,101840.35
2018-07-07T18:06:34.146Z,101841.19
2018-07-07T18:09:03.903Z,101839.02
2018-07-07T18:11:33.487Z,101842.34
2018-07-07T18:14:03.164Z,101834.98
2018-07-07T18:16:33.589Z,101841.38
2018-07-07T18:19:03.557Z,101846.38
2018-07-07T18:21:33.206Z,101847.30
2018-07-07T18:24:03.065Z,101852.05
2018-07-07T18:26:32.804Z,101849.92
2018-07-07T18:29:02.530Z,101846.34
2018-07-07T18:31:32.790Z,101851.89
2018-07-07T18:34:03.397Z,101853.54
2018-07-07T18:36:32.937Z,101847.23
2018-07-07T18:39:02.645Z,101847.74
2018-07-07T18:41:32.316Z,101847.23
2018-07-07T18:44:02.289Z,101852.78
2018-07-07T18:46:31.623Z,101850.31
2018-07-07T18:49:01.657Z,101853.08
2018-07-07T18:51:31.293Z,101859.16
2018-07-07T18:54:00.958Z,101851.53
2018-07-07T18:56:30.464Z,101859.51
2018-07-07T18:59:00.616Z,101855.98
2018-07-07T19:01:30.941Z,101862.60
2018-07-07T19:04:03.511Z,101858.53
2018-07-07T19:06:33.346Z,101857.43
2018-07-07T19:09:06.013Z,101859.91
2018-07-07T19:11:35.501Z,101859.08
2018-07-07T19:14:05.175Z,101863.50
2018-07-07T19:16:34.820Z,101860.78
2018-07-07T19:19:04.711Z,101862.42
2018-07-07T19:21:39.142Z,101862.95
2018-07-07T19:24:13.936Z,101860.51
2018-07-07T19:26:49.024Z,101860.78
2018-07-07T19:29:18.982Z,101861.61
2018-07-07T19:31:53.665Z,101865.48
2018-07-07T19:34:28.092Z,101864.40
2018-07-07T19:37:03.306Z,101868.23
2018-07-07T19:39:32.751Z,101873.45
2018-07-07T19:42:03.252Z,101871.25
2018-07-07T19:44:32.915Z,101875.10
2018-07-07T19:47:03.034Z,101880.91
2018-07-07T19:49:35.243Z,101879.54
2018-07-07T19:52:05.143Z,101881.20
2018-07-07T19:54:34.654Z,101880.94
2018-07-07T19:57:04.387Z,101880.66
2018-07-07T19:59:34.242Z,101884.25
2018-07-07T20:02:04.096Z,101881.50
2018-07-07T20:04:33.756Z,101881.52
2018-07-07T20:07:03.848Z,101876.55
2018-07-07T20:09:33.292Z,101879.58
2018-07-07T20:12:02.923Z,101879.87
2018-07-07T20:14:32.478Z,101880.13
2018-07-07T20:17:09.744Z,101882.59
2018-07-07T20:20:58.236Z,101881.50
2018-07-07T20:23:29.162Z,101886.42
2018-07-07T20:26:05.731Z,101884.77
2018-07-07T20:28:40.150Z,101889.17
2018-07-07T20:31:09.506Z,101891.10
2018-07-07T20:33:39.248Z,101891.35
2018-07-07T20:36:09.259Z,101886.98
2018-07-07T20:38:38.814Z,101886.98
2018-07-07T20:41:08.758Z,101888.08
2018-07-07T20:46:07.016Z,101890.82
2018-07-07T20:48:36.362Z,101895.20
2018-07-07T20:51:05.704Z,101892.99
2018-07-07T20:53:35.326Z,101893.56
2018-07-07T20:56:04.672Z,101897.11
2018-07-07T20:58:34.147Z,101898.20
2018-07-07T21:01:03.886Z,101896.30
2018-07-07T21:03:33.641Z,101903.95
2018-07-07T21:06:06.743Z,101902.86
2018-07-07T21:08:36.788Z,101904.23
2018-07-07T21:11:06.695Z,101903.66
2018-07-07T21:13:36.434Z,101907.77
2018-07-07T21:16:06.309Z,101909.42
2018-07-07T21:18:36.343Z,101904.20
2018-07-07T21:21:06.949Z,101910.77
2018-07-07T21:23:36.494Z,101906.32
2018-07-07T21:26:06.201Z,101911.23
2018-07-07T21:28:35.964Z,101912.33
2018-07-07T21:31:05.711Z,101912.63
2018-07-07T21:33:35.515Z,101910.70
2018-07-07T21:36:06.308Z,101913.12
2018-07-07T21:38:36.090Z,101916.16
2018-07-07T21:41:06.207Z,101916.42
2018-07-07T21:43:36.797Z,101917.77
2018-07-07T21:46:06.293Z,101915.05
2018-07-07T21:48:35.857Z,101918.84
2018-07-07T21:51:05.446Z,101918.02
2018-07-07T21:53:34.946Z,101924.02
2018-07-07T21:56:04.316Z,101922.58
2018-07-07T21:58:35.221Z,101924.48
2018-07-07T22:01:22.447Z,101930.16
2018-07-07T22:03:57.247Z,101928.48
2018-07-07T22:06:31.962Z,101930.38
2018-07-07T22:09:02.356Z,101934.69
2018-07-07T22:11:32.036Z,101936.33
2018-07-07T22:14:01.613Z,101936.28
2018-07-07T22:16:31.448Z,101934.63
2018-07-07T22:19:00.677Z,101940.08
2018-07-07T22:21:46.334Z,101938.92
2018-07-07T22:24:16.446Z,101941.97
2018-07-07T22:26:46.911Z,101938.89
2018-07-07T22:29:17.138Z,101942.44
2018-07-07T22:31:46.914Z,101939.58
2018-07-07T22:34:16.342Z,101942.31
2018-07-07T22:36:45.611Z,101936.86
2018-07-07T22:39:15.688Z,101940.91
2018-07-07T22:41:52.630Z,101950.20
2018-07-07T22:44:22.442Z,101952.69
2018-07-07T22:46:53.077Z,101943.95
2018-07-07T22:49:23.282Z,101952.66
2018-07-07T22:51:53.852Z,101955.64
2018-07-07T22:54:23.459Z,101956.66
2018-07-07T22:56:53.235Z,101956.11
2018-07-07T22:59:24.097Z,101955.22
2018-07-07T23:01:53.832Z,101957.38
2018-07-07T23:04:24.250Z,101958.11
2018-07-07T23:06:54.185Z,101954.01
2018-07-07T23:09:23.881Z,101957.80
2018-07-07T23:11:54.316Z,101948.80
2018-07-07T23:14:24.479Z,101957.38
2018-07-07T23:16:57.868Z,101962.95
2018-07-07T23:19:28.291Z,101960.12
2018-07-07T23:21:58.432Z,101955.30
2018-07-07T23:24:27.726Z,101955.23
2018-07-07T23:26:57.273Z,101952.53
2018-07-07T23:29:27.504Z,101951.86
2018-07-07T23:31:57.435Z,101950.58
2018-07-07T23:34:26.820Z,101949.56
2018-07-07T23:36:57.034Z,101947.43
2018-07-07T23:39:27.260Z,101951.07
2018-07-07T23:41:57.439Z,101945.83
2018-07-07T23:44:27.793Z,101948.52
2018-07-07T23:46:57.448Z,101945.14
2018-07-07T23:49:27.068Z,101947.27
2018-07-07T23:51:56.693Z,101940.66
2018-07-07T23:54:26.615Z,101943.75
2018-07-07T23:56:56.771Z,101940.59
2018-07-07T23:59:26.540Z,101945.54
